Pagrindinis puslapis
METAR-TAF:

METAR-TAF

Oro uostai :

Taitis, Prancūzijos Polinezija

platuma: 17-33S, ilguma: 149-37W, Aukštis: 2 m

Dabartinis oras

Ataskaita buvo paskelbta 30 minutes, ne 22:00 UTC
Vėjas 4 kt iš Vakarų
Temperatūra 30°C
Drėgmė 70%
Slėgis 1017 hPa
Matomumas 10 km arba daugiau
Mažai debesys ne aukštis 2000 ft

METAR: NTAA 302200Z 26004KT 9999 FEW020 30/24 Q1017 NOSIG

Laikas: 12:30 (22:30 UTC)

Prognozė

Ataskaita buvo paskelbta 5 valandos ir 30 minutes, ne 17:00 UTC
Prognozė galioja nuo 30 metu 18 UTC su 31 metu 24 UTC
Vėjas 3 kt nuo kintamojo kryptimis
Matomumas 10 km arba daugiau
Mažai debesys ne aukštis 2300 ft

TAF: NTAA 301700Z 3018/3124 VRB03KT 9999 FEW023

Orai ataskaitas ir orų prognozės (METAR, TAF).

turimą stotys yra geltonos ir raudonos taškus žemėlapyje.

Perkelti pele per norėdami pamatyti stoties vardą.

Tada spustelėkite, norėdami matyti oro stebėjimo ir prognozės.

Norėdami pakeisti žemėlapį: spustelėkite ant žalios mygtukų su juodo kryžiaus žemyn,; žalią mygtuką su brūkšneliu, jei norite nutolinti; arba žalių rodyklių gretimoms žemėlapius.


METAR-TAF: